sensor_id;sensor_type;location;lat;lon;timestamp;pressure;altitude;pressure_sealevel;temperature;humidity
54870;BME280;40756;-37.950;145.008;2023-04-16T00:00:10;100284.60;;;12.86;69.50
54870;BME280;40756;-37.950;145.008;2023-04-16T00:02:40;100281.65;;;13.05;69.40
54870;BME280;40756;-37.950;145.008;2023-04-16T00:05:10;100285.05;;;12.48;68.96
54870;BME280;40756;-37.950;145.008;2023-04-16T00:07:39;100287.15;;;13.11;68.13
54870;BME280;40756;-37.950;145.008;2023-04-16T00:10:10;100286.40;;;12.74;68.54
54870;BME280;40756;-37.950;145.008;2023-04-16T00:12:39;100287.00;;;12.59;70.12
54870;BME280;40756;-37.950;145.008;2023-04-16T00:15:09;100286.96;;;13.38;68.92
54870;BME280;40756;-37.950;145.008;2023-04-16T00:17:38;100299.48;;;12.92;70.80
54870;BME280;40756;-37.950;145.008;2023-04-16T00:20:09;100300.88;;;12.79;70.34
54870;BME280;40756;-37.950;145.008;2023-04-16T00:22:38;100306.46;;;12.42;70.61
54870;BME280;40756;-37.950;145.008;2023-04-16T00:25:08;100307.66;;;13.25;70.07
54870;BME280;40756;-37.950;145.008;2023-04-16T00:27:37;100313.75;;;12.27;70.60
54870;BME280;40756;-37.950;145.008;2023-04-16T00:30:08;100307.16;;;13.30;68.83
54870;BME280;40756;-37.950;145.008;2023-04-16T00:32:38;100309.01;;;13.75;69.03
54870;BME280;40756;-37.950;145.008;2023-04-16T00:35:08;100315.30;;;13.89;69.10
54870;BME280;40756;-37.950;145.008;2023-04-16T00:37:37;100317.22;;;13.61;68.35
54870;BME280;40756;-37.950;145.008;2023-04-16T00:40:08;100325.41;;;13.91;68.06
54870;BME280;40756;-37.950;145.008;2023-04-16T00:42:37;100327.78;;;14.26;66.63
54870;BME280;40756;-37.950;145.008;2023-04-16T00:45:07;100333.44;;;14.30;65.25
54870;BME280;40756;-37.950;145.008;2023-04-16T00:47:37;100343.65;;;13.93;66.44
54870;BME280;40756;-37.950;145.008;2023-04-16T00:50:07;100343.69;;;14.16;65.92
54870;BME280;40756;-37.950;145.008;2023-04-16T00:52:37;100352.19;;;14.74;65.25
54870;BME280;40756;-37.950;145.008;2023-04-16T00:55:08;100358.96;;;14.47;64.67
54870;BME280;40756;-37.950;145.008;2023-04-16T00:57:38;100363.55;;;13.94;67.41
54870;BME280;40756;-37.950;145.008;2023-04-16T01:00:08;100368.53;;;14.17;66.77
54870;BME280;40756;-37.950;145.008;2023-04-16T01:02:38;100368.87;;;15.03;65.37
54870;BME280;40756;-37.950;145.008;2023-04-16T01:05:09;100369.96;;;14.68;64.39
54870;BME280;40756;-37.950;145.008;2023-04-16T01:07:38;100371.31;;;13.96;65.12
54870;BME280;40756;-37.950;145.008;2023-04-16T01:10:08;100375.11;;;14.75;65.20
54870;BME280;40756;-37.950;145.008;2023-04-16T01:12:38;100371.74;;;14.77;64.43
54870;BME280;40756;-37.950;145.008;2023-04-16T01:15:09;100373.58;;;14.73;63.36
54870;BME280;40756;-37.950;145.008;2023-04-16T01:17:38;100377.53;;;15.04;62.68
54870;BME280;40756;-37.950;145.008;2023-04-16T01:20:08;100381.07;;;14.66;63.83
54870;BME280;40756;-37.950;145.008;2023-04-16T01:22:38;100381.81;;;15.05;62.07
54870;BME280;40756;-37.950;145.008;2023-04-16T01:25:12;100383.86;;;14.99;62.88
54870;BME280;40756;-37.950;145.008;2023-04-16T01:27:41;100382.76;;;13.76;64.78
54870;BME280;40756;-37.950;145.008;2023-04-16T01:30:11;100381.03;;;14.87;62.56
54870;BME280;40756;-37.950;145.008;2023-04-16T01:32:41;100383.61;;;14.52;63.43
54870;BME280;40756;-37.950;145.008;2023-04-16T01:35:10;100388.02;;;14.63;63.09
54870;BME280;40756;-37.950;145.008;2023-04-16T01:37:40;100392.09;;;14.84;62.52
54870;BME280;40756;-37.950;145.008;2023-04-16T01:40:10;100396.55;;;14.67;63.31
54870;BME280;40756;-37.950;145.008;2023-04-16T01:42:40;100394.31;;;15.26;62.48
54870;BME280;40756;-37.950;145.008;2023-04-16T01:45:10;100397.00;;;14.98;61.25
54870;BME280;40756;-37.950;145.008;2023-04-16T01:47:40;100404.21;;;15.12;60.75
54870;BME280;40756;-37.950;145.008;2023-04-16T01:50:10;100406.13;;;15.12;61.06
54870;BME280;40756;-37.950;145.008;2023-04-16T01:52:39;100406.10;;;14.06;65.77
54870;BME280;40756;-37.950;145.008;2023-04-16T01:55:09;100405.46;;;14.28;65.58
54870;BME280;40756;-37.950;145.008;2023-04-16T01:57:39;100412.54;;;14.39;65.40
54870;BME280;40756;-37.950;145.008;2023-04-16T02:00:09;100415.24;;;14.32;66.07
54870;BME280;40756;-37.950;145.008;2023-04-16T02:02:39;100419.28;;;13.89;66.81
54870;BME280;40756;-37.950;145.008;2023-04-16T02:05:10;100422.55;;;13.63;68.17
54870;BME280;40756;-37.950;145.008;2023-04-16T02:07:39;100428.59;;;13.80;68.27
54870;BME280;40756;-37.950;145.008;2023-04-16T02:10:09;100429.74;;;14.13;68.18
54870;BME280;40756;-37.950;145.008;2023-04-16T02:12:39;100434.79;;;13.51;66.90
54870;BME280;40756;-37.950;145.008;2023-04-16T02:15:10;100433.39;;;13.39;64.75
54870;BME280;40756;-37.950;145.008;2023-04-16T02:17:39;100435.22;;;13.66;63.85
54870;BME280;40756;-37.950;145.008;2023-04-16T02:20:10;100438.77;;;14.47;63.32
54870;BME280;40756;-37.950;145.008;2023-04-16T02:22:39;100444.41;;;14.04;64.96
54870;BME280;40756;-37.950;145.008;2023-04-16T02:25:09;100449.07;;;14.90;63.52
54870;BME280;40756;-37.950;145.008;2023-04-16T02:27:38;100459.43;;;13.78;64.79
54870;BME280;40756;-37.950;145.008;2023-04-16T02:30:09;100457.48;;;13.75;65.81
54870;BME280;40756;-37.950;145.008;2023-04-16T02:32:39;100461.99;;;13.42;66.00
54870;BME280;40756;-37.950;145.008;2023-04-16T02:35:08;100464.60;;;13.29;66.41
54870;BME280;40756;-37.950;145.008;2023-04-16T02:37:38;100465.46;;;13.64;67.09
54870;BME280;40756;-37.950;145.008;2023-04-16T02:40:09;100473.34;;;13.73;65.79
54870;BME280;40756;-37.950;145.008;2023-04-16T02:42:38;100476.69;;;13.88;64.57
54870;BME280;40756;-37.950;145.008;2023-04-16T02:45:09;100484.53;;;14.03;64.55
54870;BME280;40756;-37.950;145.008;2023-04-16T02:47:38;100499.09;;;13.28;66.93
54870;BME280;40756;-37.950;145.008;2023-04-16T02:50:08;100502.58;;;13.33;67.54
54870;BME280;40756;-37.950;145.008;2023-04-16T02:52:38;100506.08;;;13.31;67.60
54870;BME280;40756;-37.950;145.008;2023-04-16T02:55:09;100508.73;;;13.11;67.29
54870;BME280;40756;-37.950;145.008;2023-04-16T02:57:38;100506.71;;;13.21;67.58
54870;BME280;40756;-37.950;145.008;2023-04-16T03:00:09;100515.04;;;13.28;67.72
54870;BME280;40756;-37.950;145.008;2023-04-16T03:02:38;100510.08;;;13.34;67.77
54870;BME280;40756;-37.950;145.008;2023-04-16T03:05:09;100510.23;;;14.00;66.88
54870;BME280;40756;-37.950;145.008;2023-04-16T03:07:38;100508.76;;;14.00;66.18
54870;BME280;40756;-37.950;145.008;2023-04-16T03:10:10;100507.72;;;14.58;65.78
54870;BME280;40756;-37.950;145.008;2023-04-16T03:12:40;100510.17;;;14.48;66.69
54870;BME280;40756;-37.950;145.008;2023-04-16T03:15:10;100513.60;;;13.94;67.13
54870;BME280;40756;-37.950;145.008;2023-04-16T03:17:40;100514.62;;;14.41;66.68
54870;BME280;40756;-37.950;145.008;2023-04-16T03:20:10;100513.42;;;14.70;66.33
54870;BME280;40756;-37.950;145.008;2023-04-16T03:22:40;100519.82;;;15.03;67.50
54870;BME280;40756;-37.950;145.008;2023-04-16T03:25:10;100520.79;;;14.76;67.66
54870;BME280;40756;-37.950;145.008;2023-04-16T03:27:39;100515.97;;;13.98;68.54
54870;BME280;40756;-37.950;145.008;2023-04-16T03:30:11;100521.32;;;14.26;68.54
54870;BME280;40756;-37.950;145.008;2023-04-16T03:32:40;100527.46;;;14.90;65.58
54870;BME280;40756;-37.950;145.008;2023-04-16T03:35:10;100531.16;;;14.83;66.10
54870;BME280;40756;-37.950;145.008;2023-04-16T03:37:39;100544.28;;;14.05;67.44
54870;BME280;40756;-37.950;145.008;2023-04-16T03:40:09;100545.41;;;14.29;68.56
54870;BME280;40756;-37.950;145.008;2023-04-16T03:42:39;100548.96;;;13.54;68.28
54870;BME280;40756;-37.950;145.008;2023-04-16T03:45:09;100545.67;;;14.86;66.77
54870;BME280;40756;-37.950;145.008;2023-04-16T03:47:38;100543.99;;;15.43;65.59
54870;BME280;40756;-37.950;145.008;2023-04-16T03:50:08;100554.75;;;15.25;66.26
54870;BME280;40756;-37.950;145.008;2023-04-16T03:52:38;100568.21;;;13.18;65.74
54870;BME280;40756;-37.950;145.008;2023-04-16T03:55:08;100576.59;;;13.70;64.35
54870;BME280;40756;-37.950;145.008;2023-04-16T03:57:38;100578.87;;;13.60;67.40
54870;BME280;40756;-37.950;145.008;2023-04-16T04:00:08;100585.90;;;13.87;66.30
54870;BME280;40756;-37.950;145.008;2023-04-16T04:02:38;100590.12;;;13.01;66.87
54870;BME280;40756;-37.950;145.008;2023-04-16T04:05:09;100594.25;;;13.91;67.01
54870;BME280;40756;-37.950;145.008;2023-04-16T04:07:38;100597.40;;;13.39;65.95
54870;BME280;40756;-37.950;145.008;2023-04-16T04:10:09;100600.73;;;13.51;65.01
54870;BME280;40756;-37.950;145.008;2023-04-16T04:12:38;100600.32;;;14.08;63.15
54870;BME280;40756;-37.950;145.008;2023-04-16T04:15:08;100607.52;;;14.38;62.37
54870;BME280;40756;-37.950;145.008;2023-04-16T04:17:38;100605.34;;;15.26;62.51
54870;BME280;40756;-37.950;145.008;2023-04-16T04:20:09;100612.87;;;14.27;61.11
54870;BME280;40756;-37.950;145.008;2023-04-16T04:22:39;100619.64;;;14.79;62.96
54870;BME280;40756;-37.950;145.008;2023-04-16T04:25:09;100618.61;;;15.76;59.18
54870;BME280;40756;-37.950;145.008;2023-04-16T04:27:39;100628.30;;;15.47;58.21
54870;BME280;40756;-37.950;145.008;2023-04-16T04:30:09;100626.63;;;15.09;58.94
54870;BME280;40756;-37.950;145.008;2023-04-16T04:32:38;100638.47;;;15.22;56.95
54870;BME280;40756;-37.950;145.008;2023-04-16T04:35:09;100641.47;;;15.01;58.59
54870;BME280;40756;-37.950;145.008;2023-04-16T04:37:38;100647.94;;;14.60;57.93
54870;BME280;40756;-37.950;145.008;2023-04-16T04:40:08;100651.97;;;15.67;55.54
54870;BME280;40756;-37.950;145.008;2023-04-16T04:42:38;100664.10;;;15.44;55.98
54870;BME280;40756;-37.950;145.008;2023-04-16T04:45:08;100663.07;;;15.69;52.60
54870;BME280;40756;-37.950;145.008;2023-04-16T04:47:38;100669.73;;;17.19;49.55
54870;BME280;40756;-37.950;145.008;2023-04-16T04:50:09;100686.86;;;15.89;47.43
54870;BME280;40756;-37.950;145.008;2023-04-16T04:52:38;100681.65;;;16.38;48.27
54870;BME280;40756;-37.950;145.008;2023-04-16T04:55:08;100697.04;;;16.65;47.55
54870;BME280;40756;-37.950;145.008;2023-04-16T04:57:37;100695.99;;;15.88;50.21
54870;BME280;40756;-37.950;145.008;2023-04-16T05:00:08;100711.10;;;16.86;49.11
54870;BME280;40756;-37.950;145.008;2023-04-16T05:02:37;100709.92;;;16.17;48.38
54870;BME280;40756;-37.950;145.008;2023-04-16T05:05:07;100715.14;;;16.42;46.84
54870;BME280;40756;-37.950;145.008;2023-04-16T05:07:38;100715.22;;;16.95;46.24
54870;BME280;40756;-37.950;145.008;2023-04-16T05:10:08;100722.57;;;17.14;45.70
54870;BME280;40756;-37.950;145.008;2023-04-16T05:12:38;100729.24;;;16.73;45.24
54870;BME280;40756;-37.950;145.008;2023-04-16T05:15:08;100735.97;;;16.97;46.27
54870;BME280;40756;-37.950;145.008;2023-04-16T05:17:38;100740.01;;;17.14;46.35
54870;BME280;40756;-37.950;145.008;2023-04-16T05:20:08;100745.83;;;17.13;45.54
54870;BME280;40756;-37.950;145.008;2023-04-16T05:22:38;100746.44;;;17.46;44.92
54870;BME280;40756;-37.950;145.008;2023-04-16T05:25:07;100758.38;;;16.37;44.02
54870;BME280;40756;-37.950;145.008;2023-04-16T05:27:37;100762.76;;;16.36;44.82
54870;BME280;40756;-37.950;145.008;2023-04-16T05:30:08;100771.30;;;17.37;43.26
54870;BME280;40756;-37.950;145.008;2023-04-16T05:32:39;100775.85;;;16.06;43.77
54870;BME280;40756;-37.950;145.008;2023-04-16T05:35:09;100786.28;;;16.27;43.52
54870;BME280;40756;-37.950;145.008;2023-04-16T05:37:38;100789.21;;;15.38;46.32
54870;BME280;40756;-37.950;145.008;2023-04-16T05:40:11;100794.15;;;16.25;43.99
54870;BME280;40756;-37.950;145.008;2023-04-16T05:42:40;100798.28;;;15.27;44.77
54870;BME280;40756;-37.950;145.008;2023-04-16T05:45:10;100800.38;;;15.82;45.12
54870;BME280;40756;-37.950;145.008;2023-04-16T05:47:40;100801.40;;;15.82;44.36
54870;BME280;40756;-37.950;145.008;2023-04-16T05:50:10;100806.81;;;16.31;45.32
54870;BME280;40756;-37.950;145.008;2023-04-16T05:52:40;100816.87;;;16.39;45.74
54870;BME280;40756;-37.950;145.008;2023-04-16T05:55:09;100817.44;;;15.84;47.52
54870;BME280;40756;-37.950;145.008;2023-04-16T05:57:39;100823.30;;;16.71;46.91
54870;BME280;40756;-37.950;145.008;2023-04-16T06:00:09;100825.56;;;16.70;47.66
54870;BME280;40756;-37.950;145.008;2023-04-16T06:02:39;100826.01;;;16.77;46.44
54870;BME280;40756;-37.950;145.008;2023-04-16T06:05:08;100839.46;;;16.25;46.31
54870;BME280;40756;-37.950;145.008;2023-04-16T06:07:38;100840.21;;;16.53;43.95
54870;BME280;40756;-37.950;145.008;2023-04-16T06:10:08;100852.87;;;16.36;45.25
54870;BME280;40756;-37.950;145.008;2023-04-16T06:12:38;100856.79;;;16.78;44.35
54870;BME280;40756;-37.950;145.008;2023-04-16T06:15:09;100854.80;;;16.60;45.21
54870;BME280;40756;-37.950;145.008;2023-04-16T06:17:39;100854.70;;;16.85;45.98
54870;BME280;40756;-37.950;145.008;2023-04-16T06:20:09;100867.60;;;16.96;47.17
54870;BME280;40756;-37.950;145.008;2023-04-16T06:22:39;100877.83;;;16.77;48.78
54870;BME280;40756;-37.950;145.008;2023-04-16T06:25:09;100885.15;;;16.01;47.57
54870;BME280;40756;-37.950;145.008;2023-04-16T06:27:38;100894.97;;;15.45;46.66
54870;BME280;40756;-37.950;145.008;2023-04-16T06:30:13;100894.48;;;16.89;45.27
54870;BME280;40756;-37.950;145.008;2023-04-16T06:32:43;100908.57;;;15.45;49.45
54870;BME280;40756;-37.950;145.008;2023-04-16T06:35:12;100921.29;;;15.14;49.99
54870;BME280;40756;-37.950;145.008;2023-04-16T06:37:42;100925.48;;;15.45;50.10
54870;BME280;40756;-37.950;145.008;2023-04-16T06:40:12;100936.42;;;14.79;51.69
54870;BME280;40756;-37.950;145.008;2023-04-16T06:42:42;100928.50;;;14.74;52.02
54870;BME280;40756;-37.950;145.008;2023-04-16T06:45:13;100934.63;;;14.91;50.30
54870;BME280;40756;-37.950;145.008;2023-04-16T06:47:42;100937.02;;;14.49;51.80
54870;BME280;40756;-37.950;145.008;2023-04-16T06:50:12;100937.29;;;14.82;51.26
54870;BME280;40756;-37.950;145.008;2023-04-16T06:52:41;100939.51;;;14.89;51.05
54870;BME280;40756;-37.950;145.008;2023-04-16T06:55:11;100948.98;;;15.10;49.71
54870;BME280;40756;-37.950;145.008;2023-04-16T06:57:42;100951.22;;;14.44;51.79
54870;BME280;40756;-37.950;145.008;2023-04-16T07:00:12;100950.31;;;14.35;51.29
54870;BME280;40756;-37.950;145.008;2023-04-16T07:02:42;100953.68;;;15.13;49.35
54870;BME280;40756;-37.950;145.008;2023-04-16T07:05:11;100960.18;;;14.18;51.78
54870;BME280;40756;-37.950;145.008;2023-04-16T07:07:42;100969.67;;;14.74;50.72
54870;BME280;40756;-37.950;145.008;2023-04-16T07:10:12;100973.50;;;13.98;52.22
54870;BME280;40756;-37.950;145.008;2023-04-16T07:12:41;100976.18;;;14.17;51.23
54870;BME280;40756;-37.950;145.008;2023-04-16T07:15:11;100978.84;;;15.01;50.45
54870;BME280;40756;-37.950;145.008;2023-04-16T07:17:40;100984.39;;;15.30;48.74
54870;BME280;40756;-37.950;145.008;2023-04-16T07:20:11;100988.16;;;14.43;49.40
54870;BME280;40756;-37.950;145.008;2023-04-16T07:22:40;100997.36;;;14.14;49.36
54870;BME280;40756;-37.950;145.008;2023-04-16T07:25:10;101003.78;;;14.42;50.93
54870;BME280;40756;-37.950;145.008;2023-04-16T07:27:40;101011.24;;;14.63;51.00
54870;BME280;40756;-37.950;145.008;2023-04-16T07:30:10;101016.92;;;15.05;49.29
54870;BME280;40756;-37.950;145.008;2023-04-16T07:32:39;101020.66;;;14.60;50.05
54870;BME280;40756;-37.950;145.008;2023-04-16T07:35:09;101028.46;;;14.16;51.00
54870;BME280;40756;-37.950;145.008;2023-04-16T07:37:38;101029.25;;;14.34;49.71
54870;BME280;40756;-37.950;145.008;2023-04-16T07:40:09;101037.76;;;15.15;48.69
54870;BME280;40756;-37.950;145.008;2023-04-16T07:42:38;101042.83;;;14.78;49.52
54870;BME280;40756;-37.950;145.008;2023-04-16T07:45:08;101049.67;;;15.07;48.83
54870;BME280;40756;-37.950;145.008;2023-04-16T07:47:38;101065.37;;;14.10;50.88
54870;BME280;40756;-37.950;145.008;2023-04-16T07:50:09;101066.93;;;14.46;50.10
54870;BME280;40756;-37.950;145.008;2023-04-16T07:52:38;101072.06;;;14.20;49.89
54870;BME280;40756;-37.950;145.008;2023-04-16T07:55:08;101082.15;;;14.48;51.87
54870;BME280;40756;-37.950;145.008;2023-04-16T07:57:37;101095.92;;;14.95;50.46
54870;BME280;40756;-37.950;145.008;2023-04-16T08:00:09;101094.54;;;14.81;50.42
54870;BME280;40756;-37.950;145.008;2023-04-16T08:02:38;101106.29;;;14.87;49.86
54870;BME280;40756;-37.950;145.008;2023-04-16T08:05:08;101111.04;;;14.96;49.98
54870;BME280;40756;-37.950;145.008;2023-04-16T08:07:37;101117.57;;;14.86;50.40
54870;BME280;40756;-37.950;145.008;2023-04-16T08:10:08;101124.10;;;14.50;52.94
54870;BME280;40756;-37.950;145.008;2023-04-16T08:12:38;101133.26;;;14.87;49.87
54870;BME280;40756;-37.950;145.008;2023-04-16T08:15:08;101138.34;;;14.51;49.74
54870;BME280;40756;-37.950;145.008;2023-04-16T08:17:38;101139.83;;;14.48;49.44
54870;BME280;40756;-37.950;145.008;2023-04-16T08:20:08;101138.48;;;14.99;47.63
54870;BME280;40756;-37.950;145.008;2023-04-16T08:22:38;101145.93;;;14.43;49.98
54870;BME280;40756;-37.950;145.008;2023-04-16T08:25:09;101153.35;;;13.63;52.35
54870;BME280;40756;-37.950;145.008;2023-04-16T08:27:38;101158.51;;;13.92;52.43
54870;BME280;40756;-37.950;145.008;2023-04-16T08:30:08;101161.42;;;13.96;52.25
54870;BME280;40756;-37.950;145.008;2023-04-16T08:32:38;101163.45;;;14.27;51.42
54870;BME280;40756;-37.950;145.008;2023-04-16T08:35:08;101172.44;;;14.32;52.34
54870;BME280;40756;-37.950;145.008;2023-04-16T08:37:38;101178.99;;;14.42;51.48
54870;BME280;40756;-37.950;145.008;2023-04-16T08:40:09;101178.77;;;15.10;49.84
54870;BME280;40756;-37.950;145.008;2023-04-16T08:42:45;101185.49;;;15.02;50.14
54870;BME280;40756;-37.950;145.008;2023-04-16T08:45:18;101189.32;;;14.17;51.15
54870;BME280;40756;-37.950;145.008;2023-04-16T08:47:48;101188.35;;;14.84;49.38
54870;BME280;40756;-37.950;145.008;2023-04-16T08:50:23;101197.35;;;14.19;50.72
54870;BME280;40756;-37.950;145.008;2023-04-16T08:52:58;101201.44;;;13.90;51.08
54870;BME280;40756;-37.950;145.008;2023-04-16T08:55:35;101206.78;;;13.73;50.84
54870;BME280;40756;-37.950;145.008;2023-04-16T08:58:10;101212.72;;;14.07;50.99
54870;BME280;40756;-37.950;145.008;2023-04-16T09:00:42;101227.63;;;13.36;51.60
54870;BME280;40756;-37.950;145.008;2023-04-16T09:03:12;101229.99;;;14.12;51.13
54870;BME280;40756;-37.950;145.008;2023-04-16T09:05:42;101235.90;;;13.91;49.71
54870;BME280;40756;-37.950;145.008;2023-04-16T09:08:12;101243.61;;;13.79;49.48
54870;BME280;40756;-37.950;145.008;2023-04-16T09:10:43;101246.45;;;14.69;48.82
54870;BME280;40756;-37.950;145.008;2023-04-16T09:13:13;101246.18;;;14.70;48.43
54870;BME280;40756;-37.950;145.008;2023-04-16T09:15:43;101252.73;;;13.84;48.56
54870;BME280;40756;-37.950;145.008;2023-04-16T09:18:12;101252.38;;;14.54;46.70
54870;BME280;40756;-37.950;145.008;2023-04-16T09:20:43;101260.14;;;14.14;47.02
54870;BME280;40756;-37.950;145.008;2023-04-16T09:23:12;101261.57;;;13.97;47.26
54870;BME280;40756;-37.950;145.008;2023-04-16T09:25:42;101271.29;;;13.94;47.50
54870;BME280;40756;-37.950;145.008;2023-04-16T09:28:11;101268.27;;;14.02;46.18
54870;BME280;40756;-37.950;145.008;2023-04-16T09:30:41;101268.46;;;14.23;45.19
54870;BME280;40756;-37.950;145.008;2023-04-16T09:33:16;101278.62;;;14.99;44.75
54870;BME280;40756;-37.950;145.008;2023-04-16T09:35:47;101283.68;;;14.31;46.53
54870;BME280;40756;-37.950;145.008;2023-04-16T09:38:17;101290.39;;;14.24;45.04
54870;BME280;40756;-37.950;145.008;2023-04-16T09:40:47;101294.31;;;14.02;43.16
54870;BME280;40756;-37.950;145.008;2023-04-16T09:43:33;101302.12;;;14.56;41.88
54870;BME280;40756;-37.950;145.008;2023-04-16T09:46:04;101303.30;;;14.86;41.87
54870;BME280;40756;-37.950;145.008;2023-04-16T09:48:34;101315.37;;;14.34;42.45
54870;BME280;40756;-37.950;145.008;2023-04-16T09:51:06;101317.70;;;14.54;42.27
54870;BME280;40756;-37.950;145.008;2023-04-16T09:53:35;101321.16;;;14.77;42.23
54870;BME280;40756;-37.950;145.008;2023-04-16T09:56:07;101334.72;;;13.59;44.39
54870;BME280;40756;-37.950;145.008;2023-04-16T09:58:37;101336.57;;;13.56;44.90
54870;BME280;40756;-37.950;145.008;2023-04-16T10:01:08;101346.36;;;13.82;44.76
54870;BME280;40756;-37.950;145.008;2023-04-16T10:03:39;101357.94;;;13.92;45.26
54870;BME280;40756;-37.950;145.008;2023-04-16T10:06:13;101359.59;;;14.51;46.22
54870;BME280;40756;-37.950;145.008;2023-04-16T10:08:47;101364.19;;;14.80;47.32
54870;BME280;40756;-37.950;145.008;2023-04-16T10:11:19;101366.73;;;14.27;47.18
54870;BME280;40756;-37.950;145.008;2023-04-16T10:13:49;101373.11;;;13.84;47.78
54870;BME280;40756;-37.950;145.008;2023-04-16T10:16:18;101376.96;;;14.28;47.68
54870;BME280;40756;-37.950;145.008;2023-04-16T10:18:48;101382.89;;;14.13;48.49
54870;BME280;40756;-37.950;145.008;2023-04-16T10:21:18;101386.32;;;14.16;47.74
54870;BME280;40756;-37.950;145.008;2023-04-16T10:23:47;101395.03;;;14.39;46.90
54870;BME280;40756;-37.950;145.008;2023-04-16T10:26:18;101395.52;;;13.99;48.12
54870;BME280;40756;-37.950;145.008;2023-04-16T10:28:48;101402.50;;;13.80;49.13
54870;BME280;40756;-37.950;145.008;2023-04-16T10:31:18;101409.09;;;14.41;47.38
54870;BME280;40756;-37.950;145.008;2023-04-16T10:33:48;101406.18;;;14.19;47.49
54870;BME280;40756;-37.950;145.008;2023-04-16T10:36:23;101413.64;;;14.42;47.75
54870;BME280;40756;-37.950;145.008;2023-04-16T10:38:57;101416.17;;;13.71;48.82
54870;BME280;40756;-37.950;145.008;2023-04-16T10:41:27;101416.27;;;13.85;49.47
54870;BME280;40756;-37.950;145.008;2023-04-16T10:44:06;101419.76;;;13.72;51.02
54870;BME280;40756;-37.950;145.008;2023-04-16T10:46:38;101423.40;;;14.33;50.11
54870;BME280;40756;-37.950;145.008;2023-04-16T10:49:16;101420.52;;;14.51;49.54
54870;BME280;40756;-37.950;145.008;2023-04-16T10:51:56;101417.94;;;14.88;49.26
54870;BME280;40756;-37.950;145.008;2023-04-16T10:54:28;101423.64;;;14.37;49.48
54870;BME280;40756;-37.950;145.008;2023-04-16T10:56:59;101421.58;;;14.90;48.08
54870;BME280;40756;-37.950;145.008;2023-04-16T10:59:32;101422.58;;;14.99;49.33
54870;BME280;40756;-37.950;145.008;2023-04-16T11:02:07;101424.83;;;14.69;47.84
54870;BME280;40756;-37.950;145.008;2023-04-16T11:04:38;101426.49;;;14.69;47.97
54870;BME280;40756;-37.950;145.008;2023-04-16T11:07:17;101427.95;;;14.75;46.87
54870;BME280;40756;-37.950;145.008;2023-04-16T11:09:52;101428.86;;;14.11;47.64
54870;BME280;40756;-37.950;145.008;2023-04-16T11:12:23;101428.01;;;15.07;47.35
54870;BME280;40756;-37.950;145.008;2023-04-16T11:14:55;101427.99;;;15.31;46.53
54870;BME280;40756;-37.950;145.008;2023-04-16T11:17:30;101428.73;;;15.44;46.41
54870;BME280;40756;-37.950;145.008;2023-04-16T11:20:00;101437.61;;;14.55;47.35
54870;BME280;40756;-37.950;145.008;2023-04-16T11:22:30;101439.88;;;14.69;48.22
54870;BME280;40756;-37.950;145.008;2023-04-16T11:25:03;101446.16;;;15.16;47.83
54870;BME280;40756;-37.950;145.008;2023-04-16T11:27:33;101448.89;;;15.13;47.36
54870;BME280;40756;-37.950;145.008;2023-04-16T11:30:04;101454.22;;;15.20;47.55
54870;BME280;40756;-37.950;145.008;2023-04-16T11:32:35;101460.45;;;15.41;46.89
54870;BME280;40756;-37.950;145.008;2023-04-16T11:35:12;101460.99;;;15.44;46.22
54870;BME280;40756;-37.950;145.008;2023-04-16T11:37:42;101471.52;;;15.14;47.14
54870;BME280;40756;-37.950;145.008;2023-04-16T11:40:13;101476.67;;;15.13;48.61
54870;BME280;40756;-37.950;145.008;2023-04-16T11:42:42;101483.17;;;15.40;48.40
54870;BME280;40756;-37.950;145.008;2023-04-16T11:45:12;101485.90;;;15.38;49.11
54870;BME280;40756;-37.950;145.008;2023-04-16T11:47:46;101490.66;;;15.52;48.47
54870;BME280;40756;-37.950;145.008;2023-04-16T11:50:19;101500.60;;;15.20;48.84
54870;BME280;40756;-37.950;145.008;2023-04-16T11:52:50;101505.70;;;15.06;48.89
54870;BME280;40756;-37.950;145.008;2023-04-16T11:55:20;101508.23;;;15.11;47.67
54870;BME280;40756;-37.950;145.008;2023-04-16T11:57:51;101511.51;;;15.04;48.44
54870;BME280;40756;-37.950;145.008;2023-04-16T12:00:20;101512.36;;;14.97;48.53
54870;BME280;40756;-37.950;145.008;2023-04-16T12:02:51;101517.92;;;15.19;47.94
54870;BME280;40756;-37.950;145.008;2023-04-16T12:05:30;101524.72;;;14.35;48.73
54870;BME280;40756;-37.950;145.008;2023-04-16T12:08:02;101526.14;;;14.50;48.66
54870;BME280;40756;-37.950;145.008;2023-04-16T12:10:34;101525.55;;;14.75;47.48
54870;BME280;40756;-37.950;145.008;2023-04-16T12:13:13;101527.69;;;14.53;47.68
54870;BME280;40756;-37.950;145.008;2023-04-16T12:15:48;101529.70;;;14.51;47.11
54870;BME280;40756;-37.950;145.008;2023-04-16T12:18:18;101535.29;;;14.50;47.43
54870;BME280;40756;-37.950;145.008;2023-04-16T12:20:49;101540.81;;;14.40;47.73
54870;BME280;40756;-37.950;145.008;2023-04-16T12:23:27;101551.67;;;15.04;47.31
54870;BME280;40756;-37.950;145.008;2023-04-16T12:25:57;101552.88;;;14.79;46.82
54870;BME280;40756;-37.950;145.008;2023-04-16T12:28:30;101556.63;;;14.54;46.43
54870;BME280;40756;-37.950;145.008;2023-04-16T12:31:01;101558.48;;;14.69;46.42
54870;BME280;40756;-37.950;145.008;2023-04-16T12:33:31;101560.10;;;14.50;46.79
54870;BME280;40756;-37.950;145.008;2023-04-16T12:36:00;101563.02;;;14.46;47.40